sensor_id;sensor_type;location;lat;lon;timestamp;P1;durP1;ratioP1;P2;durP2;ratioP2
51238;SDS011;38154;47.548;18.828;2023-08-06T00:00:27;12.07;;;6.40;;
51238;SDS011;38154;47.548;18.828;2023-08-06T00:02:53;12.93;;;6.20;;
51238;SDS011;38154;47.548;18.828;2023-08-06T00:05:19;10.07;;;5.62;;
51238;SDS011;38154;47.548;18.828;2023-08-06T00:07:47;14.48;;;6.53;;
51238;SDS011;38154;47.548;18.828;2023-08-06T00:10:13;10.85;;;5.12;;
51238;SDS011;38154;47.548;18.828;2023-08-06T00:12:39;12.40;;;6.20;;
51238;SDS011;38154;47.548;18.828;2023-08-06T00:15:05;13.60;;;6.37;;
51238;SDS011;38154;47.548;18.828;2023-08-06T00:17:33;18.35;;;5.40;;
51238;SDS011;38154;47.548;18.828;2023-08-06T00:19:59;12.50;;;6.20;;
51238;SDS011;38154;47.548;18.828;2023-08-06T00:22:31;11.20;;;5.47;;
51238;SDS011;38154;47.548;18.828;2023-08-06T00:25:01;12.45;;;5.78;;
51238;SDS011;38154;47.548;18.828;2023-08-06T00:27:28;10.63;;;5.15;;
51238;SDS011;38154;47.548;18.828;2023-08-06T00:29:54;14.20;;;5.28;;
51238;SDS011;38154;47.548;18.828;2023-08-06T00:32:19;8.25;;;4.90;;
51238;SDS011;38154;47.548;18.828;2023-08-06T00:34:46;10.02;;;4.82;;
51238;SDS011;38154;47.548;18.828;2023-08-06T00:37:12;7.80;;;4.53;;
51238;SDS011;38154;47.548;18.828;2023-08-06T00:39:38;9.77;;;4.82;;
51238;SDS011;38154;47.548;18.828;2023-08-06T00:42:03;11.43;;;4.25;;
51238;SDS011;38154;47.548;18.828;2023-08-06T00:44:29;9.25;;;4.95;;
51238;SDS011;38154;47.548;18.828;2023-08-06T00:46:55;9.65;;;5.20;;
51238;SDS011;38154;47.548;18.828;2023-08-06T00:49:21;11.02;;;5.35;;
51238;SDS011;38154;47.548;18.828;2023-08-06T00:51:47;13.62;;;4.75;;
51238;SDS011;38154;47.548;18.828;2023-08-06T00:54:13;7.37;;;4.00;;
51238;SDS011;38154;47.548;18.828;2023-08-06T00:56:39;10.40;;;4.32;;
51238;SDS011;38154;47.548;18.828;2023-08-06T00:59:07;6.97;;;4.20;;
51238;SDS011;38154;47.548;18.828;2023-08-06T01:01:34;8.32;;;4.43;;
51238;SDS011;38154;47.548;18.828;2023-08-06T01:04:00;8.32;;;4.43;;
51238;SDS011;38154;47.548;18.828;2023-08-06T01:06:48;7.85;;;4.78;;
51238;SDS011;38154;47.548;18.828;2023-08-06T01:12:18;10.25;;;4.70;;
51238;SDS011;38154;47.548;18.828;2023-08-06T01:17:47;8.48;;;5.00;;
51238;SDS011;38154;47.548;18.828;2023-08-06T01:20:14;14.20;;;4.00;;
51238;SDS011;38154;47.548;18.828;2023-08-06T01:22:39;12.43;;;5.22;;
51238;SDS011;38154;47.548;18.828;2023-08-06T01:25:05;10.73;;;4.72;;
51238;SDS011;38154;47.548;18.828;2023-08-06T01:27:42;12.85;;;5.30;;
51238;SDS011;38154;47.548;18.828;2023-08-06T01:30:12;12.10;;;5.15;;
51238;SDS011;38154;47.548;18.828;2023-08-06T01:32:42;10.57;;;5.05;;
51238;SDS011;38154;47.548;18.828;2023-08-06T01:35:10;8.98;;;4.32;;
51238;SDS011;38154;47.548;18.828;2023-08-06T01:37:37;8.93;;;4.53;;
51238;SDS011;38154;47.548;18.828;2023-08-06T01:42:37;8.15;;;3.65;;
51238;SDS011;38154;47.548;18.828;2023-08-06T01:47:29;9.98;;;4.03;;
51238;SDS011;38154;47.548;18.828;2023-08-06T01:49:55;6.57;;;4.05;;
51238;SDS011;38154;47.548;18.828;2023-08-06T01:52:21;6.87;;;3.95;;
51238;SDS011;38154;47.548;18.828;2023-08-06T01:54:47;7.60;;;4.22;;
51238;SDS011;38154;47.548;18.828;2023-08-06T01:57:13;7.10;;;3.85;;
51238;SDS011;38154;47.548;18.828;2023-08-06T01:59:39;5.90;;;3.87;;
51238;SDS011;38154;47.548;18.828;2023-08-06T02:02:05;9.68;;;4.37;;
51238;SDS011;38154;47.548;18.828;2023-08-06T02:04:31;8.48;;;4.32;;
51238;SDS011;38154;47.548;18.828;2023-08-06T02:06:56;7.22;;;3.20;;
51238;SDS011;38154;47.548;18.828;2023-08-06T02:09:22;9.60;;;3.97;;
51238;SDS011;38154;47.548;18.828;2023-08-06T02:11:48;6.00;;;3.80;;
51238;SDS011;38154;47.548;18.828;2023-08-06T02:14:14;9.85;;;4.40;;
51238;SDS011;38154;47.548;18.828;2023-08-06T02:16:40;5.93;;;3.47;;
51238;SDS011;38154;47.548;18.828;2023-08-06T02:19:06;8.02;;;3.90;;
51238;SDS011;38154;47.548;18.828;2023-08-06T02:21:31;5.32;;;3.35;;
51238;SDS011;38154;47.548;18.828;2023-08-06T02:23:58;7.60;;;3.35;;
51238;SDS011;38154;47.548;18.828;2023-08-06T02:26:24;5.97;;;3.67;;
51238;SDS011;38154;47.548;18.828;2023-08-06T02:28:50;8.18;;;3.60;;
51238;SDS011;38154;47.548;18.828;2023-08-06T02:31:16;8.98;;;4.22;;
51238;SDS011;38154;47.548;18.828;2023-08-06T02:33:41;7.32;;;3.08;;
51238;SDS011;38154;47.548;18.828;2023-08-06T02:36:07;6.18;;;3.47;;
51238;SDS011;38154;47.548;18.828;2023-08-06T02:38:33;8.48;;;3.87;;
51238;SDS011;38154;47.548;18.828;2023-08-06T02:41:01;7.78;;;3.92;;
51238;SDS011;38154;47.548;18.828;2023-08-06T02:43:28;10.73;;;3.87;;
51238;SDS011;38154;47.548;18.828;2023-08-06T02:45:56;6.93;;;3.87;;
51238;SDS011;38154;47.548;18.828;2023-08-06T02:48:23;6.62;;;3.50;;
51238;SDS011;38154;47.548;18.828;2023-08-06T02:50:49;5.95;;;3.20;;
51238;SDS011;38154;47.548;18.828;2023-08-06T02:53:15;4.57;;;3.00;;
51238;SDS011;38154;47.548;18.828;2023-08-06T02:55:45;7.68;;;3.47;;
51238;SDS011;38154;47.548;18.828;2023-08-06T02:58:16;4.87;;;2.90;;
51238;SDS011;38154;47.548;18.828;2023-08-06T03:00:43;5.25;;;3.20;;
51238;SDS011;38154;47.548;18.828;2023-08-06T03:03:10;3.85;;;2.50;;
51238;SDS011;38154;47.548;18.828;2023-08-06T03:05:35;4.53;;;2.37;;
51238;SDS011;38154;47.548;18.828;2023-08-06T03:08:01;3.75;;;2.72;;
51238;SDS011;38154;47.548;18.828;2023-08-06T03:10:27;5.05;;;3.08;;
51238;SDS011;38154;47.548;18.828;2023-08-06T03:12:53;6.18;;;3.55;;
51238;SDS011;38154;47.548;18.828;2023-08-06T03:15:19;11.27;;;3.20;;
51238;SDS011;38154;47.548;18.828;2023-08-06T03:17:45;7.07;;;2.75;;
51238;SDS011;38154;47.548;18.828;2023-08-06T03:20:10;6.07;;;2.78;;
51238;SDS011;38154;47.548;18.828;2023-08-06T03:22:36;4.90;;;2.80;;
51238;SDS011;38154;47.548;18.828;2023-08-06T03:25:03;4.28;;;2.92;;
51238;SDS011;38154;47.548;18.828;2023-08-06T03:29:55;6.20;;;3.42;;
51238;SDS011;38154;47.548;18.828;2023-08-06T03:32:21;4.95;;;2.83;;
51238;SDS011;38154;47.548;18.828;2023-08-06T03:34:46;7.28;;;4.35;;
51238;SDS011;38154;47.548;18.828;2023-08-06T03:37:12;11.40;;;4.97;;
51238;SDS011;38154;47.548;18.828;2023-08-06T03:39:38;10.55;;;4.25;;
51238;SDS011;38154;47.548;18.828;2023-08-06T03:42:04;9.10;;;5.40;;
51238;SDS011;38154;47.548;18.828;2023-08-06T03:44:30;8.38;;;5.03;;
51238;SDS011;38154;47.548;18.828;2023-08-06T03:46:56;13.03;;;5.13;;
51238;SDS011;38154;47.548;18.828;2023-08-06T03:49:22;17.98;;;4.82;;
51238;SDS011;38154;47.548;18.828;2023-08-06T03:51:48;9.67;;;4.60;;
51238;SDS011;38154;47.548;18.828;2023-08-06T03:54:14;5.47;;;3.27;;
51238;SDS011;38154;47.548;18.828;2023-08-06T03:56:40;7.47;;;2.90;;
51238;SDS011;38154;47.548;18.828;2023-08-06T03:59:05;4.87;;;2.58;;
51238;SDS011;38154;47.548;18.828;2023-08-06T04:01:31;3.87;;;2.50;;
51238;SDS011;38154;47.548;18.828;2023-08-06T04:03:57;2.20;;;1.53;;
51238;SDS011;38154;47.548;18.828;2023-08-06T04:06:23;3.42;;;1.48;;
51238;SDS011;38154;47.548;18.828;2023-08-06T04:08:49;2.57;;;1.77;;
51238;SDS011;38154;47.548;18.828;2023-08-06T04:11:15;2.80;;;1.70;;
51238;SDS011;38154;47.548;18.828;2023-08-06T04:13:44;2.83;;;1.65;;
51238;SDS011;38154;47.548;18.828;2023-08-06T04:16:10;3.08;;;1.87;;
51238;SDS011;38154;47.548;18.828;2023-08-06T04:18:36;3.53;;;2.03;;
51238;SDS011;38154;47.548;18.828;2023-08-06T04:21:02;3.03;;;2.20;;
51238;SDS011;38154;47.548;18.828;2023-08-06T04:23:28;4.22;;;2.45;;
51238;SDS011;38154;47.548;18.828;2023-08-06T04:25:57;3.97;;;2.63;;
51238;SDS011;38154;47.548;18.828;2023-08-06T04:28:23;4.15;;;1.77;;
51238;SDS011;38154;47.548;18.828;2023-08-06T04:30:49;3.10;;;1.55;;
51238;SDS011;38154;47.548;18.828;2023-08-06T04:33:15;1.77;;;1.40;;
51238;SDS011;38154;47.548;18.828;2023-08-06T04:35:41;2.85;;;1.35;;
51238;SDS011;38154;47.548;18.828;2023-08-06T04:38:06;4.37;;;1.27;;
51238;SDS011;38154;47.548;18.828;2023-08-06T04:40:33;2.30;;;1.27;;
51238;SDS011;38154;47.548;18.828;2023-08-06T04:43:01;0.80;;;0.80;;
51238;SDS011;38154;47.548;18.828;2023-08-06T04:45:27;2.50;;;1.12;;
51238;SDS011;38154;47.548;18.828;2023-08-06T04:47:53;2.12;;;1.25;;
51238;SDS011;38154;47.548;18.828;2023-08-06T04:50:19;1.37;;;0.87;;
51238;SDS011;38154;47.548;18.828;2023-08-06T04:52:45;3.20;;;0.77;;
51238;SDS011;38154;47.548;18.828;2023-08-06T04:55:11;1.10;;;0.70;;
51238;SDS011;38154;47.548;18.828;2023-08-06T04:57:37;1.33;;;1.13;;
51238;SDS011;38154;47.548;18.828;2023-08-06T05:00:03;1.23;;;0.80;;
51238;SDS011;38154;47.548;18.828;2023-08-06T05:02:30;1.30;;;0.77;;
51238;SDS011;38154;47.548;18.828;2023-08-06T05:04:58;0.77;;;0.43;;
51238;SDS011;38154;47.548;18.828;2023-08-06T05:07:24;0.40;;;0.40;;
51238;SDS011;38154;47.548;18.828;2023-08-06T05:09:50;0.52;;;0.50;;
51238;SDS011;38154;47.548;18.828;2023-08-06T05:12:16;1.23;;;0.50;;
51238;SDS011;38154;47.548;18.828;2023-08-06T05:14:42;0.47;;;0.47;;
51238;SDS011;38154;47.548;18.828;2023-08-06T05:17:08;0.30;;;0.30;;
51238;SDS011;38154;47.548;18.828;2023-08-06T05:19:33;0.30;;;0.30;;
51238;SDS011;38154;47.548;18.828;2023-08-06T05:21:59;0.30;;;0.30;;
51238;SDS011;38154;47.548;18.828;2023-08-06T05:24:27;0.20;;;0.20;;
51238;SDS011;38154;47.548;18.828;2023-08-06T05:26:52;0.65;;;0.30;;
51238;SDS011;38154;47.548;18.828;2023-08-06T05:29:18;0.20;;;0.20;;
51238;SDS011;38154;47.548;18.828;2023-08-06T05:31:44;0.20;;;0.20;;
51238;SDS011;38154;47.548;18.828;2023-08-06T05:34:10;0.20;;;0.20;;
51238;SDS011;38154;47.548;18.828;2023-08-06T05:36:36;0.30;;;0.30;;
51238;SDS011;38154;47.548;18.828;2023-08-06T05:39:02;0.20;;;0.20;;
51238;SDS011;38154;47.548;18.828;2023-08-06T05:41:28;0.20;;;0.20;;
51238;SDS011;38154;47.548;18.828;2023-08-06T05:43:54;0.30;;;0.30;;
51238;SDS011;38154;47.548;18.828;2023-08-06T05:46:20;0.50;;;0.50;;
51238;SDS011;38154;47.548;18.828;2023-08-06T05:48:45;0.30;;;0.30;;
51238;SDS011;38154;47.548;18.828;2023-08-06T05:51:11;0.43;;;0.43;;
51238;SDS011;38154;47.548;18.828;2023-08-06T05:53:38;0.30;;;0.30;;
51238;SDS011;38154;47.548;18.828;2023-08-06T05:56:04;0.30;;;0.30;;
51238;SDS011;38154;47.548;18.828;2023-08-06T05:58:30;0.30;;;0.30;;
51238;SDS011;38154;47.548;18.828;2023-08-06T06:00:56;0.40;;;0.40;;
51238;SDS011;38154;47.548;18.828;2023-08-06T06:03:22;0.50;;;0.50;;
51238;SDS011;38154;47.548;18.828;2023-08-06T06:05:48;0.50;;;0.50;;
51238;SDS011;38154;47.548;18.828;2023-08-06T06:08:14;0.50;;;0.50;;
51238;SDS011;38154;47.548;18.828;2023-08-06T06:10:40;0.50;;;0.50;;
51238;SDS011;38154;47.548;18.828;2023-08-06T06:13:05;1.75;;;0.62;;
51238;SDS011;38154;47.548;18.828;2023-08-06T06:15:31;0.50;;;0.50;;
51238;SDS011;38154;47.548;18.828;2023-08-06T06:17:57;0.43;;;0.40;;
51238;SDS011;38154;47.548;18.828;2023-08-06T06:20:23;0.60;;;0.60;;
51238;SDS011;38154;47.548;18.828;2023-08-06T06:22:49;0.57;;;0.57;;
51238;SDS011;38154;47.548;18.828;2023-08-06T06:25:15;0.60;;;0.60;;
51238;SDS011;38154;47.548;18.828;2023-08-06T06:27:41;5.05;;;0.60;;
51238;SDS011;38154;47.548;18.828;2023-08-06T06:30:07;0.50;;;0.50;;
51238;SDS011;38154;47.548;18.828;2023-08-06T06:32:33;0.43;;;0.43;;
51238;SDS011;38154;47.548;18.828;2023-08-06T06:34:59;0.70;;;0.70;;
51238;SDS011;38154;47.548;18.828;2023-08-06T06:37:25;3.85;;;1.83;;
51238;SDS011;38154;47.548;18.828;2023-08-06T06:39:51;0.50;;;0.50;;
51238;SDS011;38154;47.548;18.828;2023-08-06T06:42:17;0.70;;;0.60;;
51238;SDS011;38154;47.548;18.828;2023-08-06T06:44:43;0.70;;;0.70;;
51238;SDS011;38154;47.548;18.828;2023-08-06T06:47:08;0.60;;;0.60;;
51238;SDS011;38154;47.548;18.828;2023-08-06T06:49:34;1.65;;;0.60;;
51238;SDS011;38154;47.548;18.828;2023-08-06T06:52:00;0.83;;;0.70;;
51238;SDS011;38154;47.548;18.828;2023-08-06T06:54:26;0.50;;;0.50;;
51238;SDS011;38154;47.548;18.828;2023-08-06T06:56:52;2.50;;;0.52;;
51238;SDS011;38154;47.548;18.828;2023-08-06T06:59:18;0.60;;;0.60;;
51238;SDS011;38154;47.548;18.828;2023-08-06T07:01:44;0.57;;;0.57;;
51238;SDS011;38154;47.548;18.828;2023-08-06T07:04:09;0.60;;;0.60;;
51238;SDS011;38154;47.548;18.828;2023-08-06T07:06:35;4.18;;;0.50;;
51238;SDS011;38154;47.548;18.828;2023-08-06T07:09:01;0.40;;;0.40;;
51238;SDS011;38154;47.548;18.828;2023-08-06T07:11:27;1.85;;;0.50;;
51238;SDS011;38154;47.548;18.828;2023-08-06T07:13:57;0.30;;;0.30;;
51238;SDS011;38154;47.548;18.828;2023-08-06T07:16:26;0.40;;;0.40;;
51238;SDS011;38154;47.548;18.828;2023-08-06T07:18:53;0.45;;;0.45;;
51238;SDS011;38154;47.548;18.828;2023-08-06T07:21:19;0.32;;;0.32;;
51238;SDS011;38154;47.548;18.828;2023-08-06T07:23:45;0.30;;;0.30;;
51238;SDS011;38154;47.548;18.828;2023-08-06T07:26:11;0.20;;;0.20;;
51238;SDS011;38154;47.548;18.828;2023-08-06T07:28:37;0.40;;;0.40;;
51238;SDS011;38154;47.548;18.828;2023-08-06T07:31:03;0.37;;;0.30;;
51238;SDS011;38154;47.548;18.828;2023-08-06T07:33:29;0.37;;;0.37;;
51238;SDS011;38154;47.548;18.828;2023-08-06T07:35:55;3.08;;;1.08;;
51238;SDS011;38154;47.548;18.828;2023-08-06T07:38:21;2.95;;;0.82;;
51238;SDS011;38154;47.548;18.828;2023-08-06T07:40:47;0.75;;;0.40;;
51238;SDS011;38154;47.548;18.828;2023-08-06T07:43:13;0.30;;;0.30;;
51238;SDS011;38154;47.548;18.828;2023-08-06T07:45:39;0.40;;;0.30;;
51238;SDS011;38154;47.548;18.828;2023-08-06T07:48:05;0.20;;;0.20;;
51238;SDS011;38154;47.548;18.828;2023-08-06T07:50:31;0.20;;;0.20;;
51238;SDS011;38154;47.548;18.828;2023-08-06T07:52:57;0.30;;;0.30;;
51238;SDS011;38154;47.548;18.828;2023-08-06T07:55:23;0.30;;;0.30;;
51238;SDS011;38154;47.548;18.828;2023-08-06T07:57:49;0.20;;;0.20;;
51238;SDS011;38154;47.548;18.828;2023-08-06T08:00:15;0.20;;;0.20;;
51238;SDS011;38154;47.548;18.828;2023-08-06T08:02:40;0.25;;;0.25;;
51238;SDS011;38154;47.548;18.828;2023-08-06T08:05:06;0.23;;;0.23;;
51238;SDS011;38154;47.548;18.828;2023-08-06T08:07:33;0.45;;;0.30;;
51238;SDS011;38154;47.548;18.828;2023-08-06T08:09:59;0.45;;;0.45;;
51238;SDS011;38154;47.548;18.828;2023-08-06T08:12:25;0.20;;;0.20;;
51238;SDS011;38154;47.548;18.828;2023-08-06T08:14:51;0.22;;;0.22;;
51238;SDS011;38154;47.548;18.828;2023-08-06T08:17:17;0.27;;;0.27;;
51238;SDS011;38154;47.548;18.828;2023-08-06T08:19:43;0.45;;;0.45;;
51238;SDS011;38154;47.548;18.828;2023-08-06T08:22:09;0.28;;;0.28;;
51238;SDS011;38154;47.548;18.828;2023-08-06T08:24:35;0.30;;;0.30;;
51238;SDS011;38154;47.548;18.828;2023-08-06T08:27:01;0.30;;;0.30;;
51238;SDS011;38154;47.548;18.828;2023-08-06T08:29:27;0.40;;;0.40;;
51238;SDS011;38154;47.548;18.828;2023-08-06T08:31:52;0.30;;;0.30;;
51238;SDS011;38154;47.548;18.828;2023-08-06T08:34:18;0.70;;;0.70;;
51238;SDS011;38154;47.548;18.828;2023-08-06T08:36:44;0.30;;;0.30;;
51238;SDS011;38154;47.548;18.828;2023-08-06T08:39:13;0.30;;;0.30;;
51238;SDS011;38154;47.548;18.828;2023-08-06T08:41:39;0.30;;;0.30;;
51238;SDS011;38154;47.548;18.828;2023-08-06T08:44:08;0.30;;;0.30;;
51238;SDS011;38154;47.548;18.828;2023-08-06T08:46:36;0.32;;;0.32;;
51238;SDS011;38154;47.548;18.828;2023-08-06T08:49:05;0.30;;;0.30;;
51238;SDS011;38154;47.548;18.828;2023-08-06T08:51:33;0.40;;;0.40;;
51238;SDS011;38154;47.548;18.828;2023-08-06T08:54:02;0.45;;;0.37;;
51238;SDS011;38154;47.548;18.828;2023-08-06T08:56:29;2.47;;;0.65;;
51238;SDS011;38154;47.548;18.828;2023-08-06T08:58:56;0.37;;;0.37;;
51238;SDS011;38154;47.548;18.828;2023-08-06T09:01:22;0.40;;;0.40;;
51238;SDS011;38154;47.548;18.828;2023-08-06T09:03:48;0.30;;;0.30;;
51238;SDS011;38154;47.548;18.828;2023-08-06T09:06:15;0.55;;;0.32;;
51238;SDS011;38154;47.548;18.828;2023-08-06T09:08:49;0.20;;;0.20;;
51238;SDS011;38154;47.548;18.828;2023-08-06T09:11:20;0.43;;;0.40;;
51238;SDS011;38154;47.548;18.828;2023-08-06T09:13:47;0.20;;;0.20;;
51238;SDS011;38154;47.548;18.828;2023-08-06T09:16:13;0.40;;;0.40;;
51238;SDS011;38154;47.548;18.828;2023-08-06T09:18:39;0.68;;;0.68;;
51238;SDS011;38154;47.548;18.828;2023-08-06T09:21:05;0.45;;;0.45;;
51238;SDS011;38154;47.548;18.828;2023-08-06T09:23:31;0.30;;;0.30;;
51238;SDS011;38154;47.548;18.828;2023-08-06T09:25:58;0.50;;;0.50;;
51238;SDS011;38154;47.548;18.828;2023-08-06T09:28:36;0.50;;;0.50;;
51238;SDS011;38154;47.548;18.828;2023-08-06T09:31:03;0.50;;;0.50;;
51238;SDS011;38154;47.548;18.828;2023-08-06T09:33:29;0.40;;;0.40;;
51238;SDS011;38154;47.548;18.828;2023-08-06T09:35:55;0.30;;;0.30;;
51238;SDS011;38154;47.548;18.828;2023-08-06T09:38:21;0.50;;;0.50;;
51238;SDS011;38154;47.548;18.828;2023-08-06T09:40:47;0.50;;;0.50;;
51238;SDS011;38154;47.548;18.828;2023-08-06T09:43:13;0.73;;;0.50;;
51238;SDS011;38154;47.548;18.828;2023-08-06T09:45:42;0.60;;;0.45;;
51238;SDS011;38154;47.548;18.828;2023-08-06T09:48:09;1.27;;;0.40;;
51238;SDS011;38154;47.548;18.828;2023-08-06T09:50:36;0.50;;;0.50;;
51238;SDS011;38154;47.548;18.828;2023-08-06T09:53:04;0.65;;;0.55;;
51238;SDS011;38154;47.548;18.828;2023-08-06T09:55:31;0.30;;;0.30;;
51238;SDS011;38154;47.548;18.828;2023-08-06T09:57:58;0.50;;;0.50;;
51238;SDS011;38154;47.548;18.828;2023-08-06T10:02:52;0.40;;;0.40;;
51238;SDS011;38154;47.548;18.828;2023-08-06T10:05:20;0.62;;;0.45;;
51238;SDS011;38154;47.548;18.828;2023-08-06T10:07:46;0.40;;;0.40;;
51238;SDS011;38154;47.548;18.828;2023-08-06T10:10:13;0.30;;;0.30;;
51238;SDS011;38154;47.548;18.828;2023-08-06T10:12:40;0.40;;;0.40;;
51238;SDS011;38154;47.548;18.828;2023-08-06T10:15:12;3.00;;;0.43;;
51238;SDS011;38154;47.548;18.828;2023-08-06T10:17:40;0.40;;;0.40;;
51238;SDS011;38154;47.548;18.828;2023-08-06T10:20:09;0.30;;;0.30;;
51238;SDS011;38154;47.548;18.828;2023-08-06T10:22:35;0.50;;;0.50;;
51238;SDS011;38154;47.548;18.828;2023-08-06T10:25:02;0.43;;;0.43;;
51238;SDS011;38154;47.548;18.828;2023-08-06T10:27:40;3.25;;;0.50;;
51238;SDS011;38154;47.548;18.828;2023-08-06T10:30:22;0.20;;;0.20;;
51238;SDS011;38154;47.548;18.828;2023-08-06T10:32:52;0.45;;;0.30;;
51238;SDS011;38154;47.548;18.828;2023-08-06T10:38:09;0.45;;;0.45;;
51238;SDS011;38154;47.548;18.828;2023-08-06T10:40:47;0.47;;;0.47;;
51238;SDS011;38154;47.548;18.828;2023-08-06T10:43:35;0.40;;;0.40;;
51238;SDS011;38154;47.548;18.828;2023-08-06T10:46:08;0.30;;;0.30;;
51238;SDS011;38154;47.548;18.828;2023-08-06T10:48:36;0.43;;;0.40;;
51238;SDS011;38154;47.548;18.828;2023-08-06T10:51:02;1.45;;;0.52;;
51238;SDS011;38154;47.548;18.828;2023-08-06T10:53:31;0.47;;;0.47;;
51238;SDS011;38154;47.548;18.828;2023-08-06T10:55:57;0.70;;;0.70;;
51238;SDS011;38154;47.548;18.828;2023-08-06T10:58:23;0.60;;;0.60;;
51238;SDS011;38154;47.548;18.828;2023-08-06T11:00:49;0.40;;;0.40;;
51238;SDS011;38154;47.548;18.828;2023-08-06T11:03:15;0.50;;;0.50;;
51238;SDS011;38154;47.548;18.828;2023-08-06T11:05:41;0.50;;;0.47;;
51238;SDS011;38154;47.548;18.828;2023-08-06T11:08:22;0.65;;;0.60;;
51238;SDS011;38154;47.548;18.828;2023-08-06T11:10:50;0.60;;;0.60;;
51238;SDS011;38154;47.548;18.828;2023-08-06T11:13:16;0.60;;;0.50;;
51238;SDS011;38154;47.548;18.828;2023-08-06T11:15:44;0.60;;;0.60;;
51238;SDS011;38154;47.548;18.828;2023-08-06T11:18:10;1.10;;;0.70;;
51238;SDS011;38154;47.548;18.828;2023-08-06T11:20:36;0.60;;;0.60;;
51238;SDS011;38154;47.548;18.828;2023-08-06T11:23:02;0.82;;;0.52;;
51238;SDS011;38154;47.548;18.828;2023-08-06T11:25:28;0.82;;;0.50;;
51238;SDS011;38154;47.548;18.828;2023-08-06T11:27:54;0.40;;;0.40;;
51238;SDS011;38154;47.548;18.828;2023-08-06T11:30:20;0.70;;;0.70;;
51238;SDS011;38154;47.548;18.828;2023-08-06T11:32:47;0.40;;;0.40;;
51238;SDS011;38154;47.548;18.828;2023-08-06T11:35:14;0.98;;;0.57;;
51238;SDS011;38154;47.548;18.828;2023-08-06T11:37:47;0.55;;;0.55;;
51238;SDS011;38154;47.548;18.828;2023-08-06T11:40:14;0.75;;;0.75;;
51238;SDS011;38154;47.548;18.828;2023-08-06T11:42:41;0.70;;;0.70;;
51238;SDS011;38154;47.548;18.828;2023-08-06T11:45:08;0.50;;;0.50;;
51238;SDS011;38154;47.548;18.828;2023-08-06T11:47:37;0.50;;;0.50;;
51238;SDS011;38154;47.548;18.828;2023-08-06T11:50:05;0.75;;;0.62;;
51238;SDS011;38154;47.548;18.828;2023-08-06T11:52:32;0.50;;;0.50;;
51238;SDS011;38154;47.548;18.828;2023-08-06T11:55:05;0.35;;;0.35;;
51238;SDS011;38154;47.548;18.828;2023-08-06T11:57:33;0.57;;;0.57;;
51238;SDS011;38154;47.548;18.828;2023-08-06T12:00:04;0.85;;;0.50;;
51238;SDS011;38154;47.548;18.828;2023-08-06T12:02:35;0.43;;;0.43;;
51238;SDS011;38154;47.548;18.828;2023-08-06T12:05:12;0.60;;;0.60;;
51238;SDS011;38154;47.548;18.828;2023-08-06T12:10:07;0.93;;;0.70;;
51238;SDS011;38154;47.548;18.828;2023-08-06T12:12:33;0.80;;;0.70;;
51238;SDS011;38154;47.548;18.828;2023-08-06T12:15:00;0.60;;;0.60;;
51238;SDS011;38154;47.548;18.828;2023-08-06T12:17:26;0.68;;;0.68;;
51238;SDS011;38154;47.548;18.828;2023-08-06T12:19:52;0.70;;;0.70;;
51238;SDS011;38154;47.548;18.828;2023-08-06T12:22:18;0.68;;;0.68;;
51238;SDS011;38154;47.548;18.828;2023-08-06T12:24:45;0.90;;;0.90;;
51238;SDS011;38154;47.548;18.828;2023-08-06T12:27:12;1.00;;;0.80;;
51238;SDS011;38154;47.548;18.828;2023-08-06T12:29:42;0.98;;;0.80;;
51238;SDS011;38154;47.548;18.828;2023-08-06T12:32:09;0.80;;;0.73;;
51238;SDS011;38154;47.548;18.828;2023-08-06T12:34:37;0.80;;;0.80;;
51238;SDS011;38154;47.548;18.828;2023-08-06T12:37:06;0.70;;;0.70;;
51238;SDS011;38154;47.548;18.828;2023-08-06T12:41:59;1.27;;;1.00;;
51238;SDS011;38154;47.548;18.828;2023-08-06T12:44:26;0.98;;;0.90;;
51238;SDS011;38154;47.548;18.828;2023-08-06T12:46:52;1.10;;;0.80;;
51238;SDS011;38154;47.548;18.828;2023-08-06T12:49:18;0.77;;;0.77;;
51238;SDS011;38154;47.548;18.828;2023-08-06T12:51:49;1.05;;;0.90;;
51238;SDS011;38154;47.548;18.828;2023-08-06T12:54:19;1.20;;;0.90;;
51238;SDS011;38154;47.548;18.828;2023-08-06T12:56:46;2.90;;;1.30;;
51238;SDS011;38154;47.548;18.828;2023-08-06T12:59:13;1.00;;;0.90;;
51238;SDS011;38154;47.548;18.828;2023-08-06T13:01:40;1.37;;;0.98;;
51238;SDS011;38154;47.548;18.828;2023-08-06T13:06:33;0.82;;;0.82;;
51238;SDS011;38154;47.548;18.828;2023-08-06T13:09:08;1.75;;;1.10;;
51238;SDS011;38154;47.548;18.828;2023-08-06T13:11:35;0.93;;;0.90;;
51238;SDS011;38154;47.548;18.828;2023-08-06T13:14:03;1.02;;;0.90;;
51238;SDS011;38154;47.548;18.828;2023-08-06T13:16:33;1.37;;;1.00;;
51238;SDS011;38154;47.548;18.828;2023-08-06T13:21:31;2.70;;;1.30;;
51238;SDS011;38154;47.548;18.828;2023-08-06T13:24:00;1.02;;;0.90;;
51238;SDS011;38154;47.548;18.828;2023-08-06T13:26:29;1.92;;;1.30;;
51238;SDS011;38154;47.548;18.828;2023-08-06T13:28:58;0.98;;;0.98;;
51238;SDS011;38154;47.548;18.828;2023-08-06T13:31:25;1.25;;;1.15;;
51238;SDS011;38154;47.548;18.828;2023-08-06T13:33:53;2.05;;;1.17;;
51238;SDS011;38154;47.548;18.828;2023-08-06T13:36:21;2.50;;;1.30;;
51238;SDS011;38154;47.548;18.828;2023-08-06T13:38:48;1.55;;;1.23;;
51238;SDS011;38154;47.548;18.828;2023-08-06T13:41:13;0.93;;;0.88;;
51238;SDS011;38154;47.548;18.828;2023-08-06T13:43:40;1.42;;;1.30;;
51238;SDS011;38154;47.548;18.828;2023-08-06T13:46:05;3.37;;;1.35;;
51238;SDS011;38154;47.548;18.828;2023-08-06T13:48:31;1.30;;;1.20;;
51238;SDS011;38154;47.548;18.828;2023-08-06T13:50:57;1.45;;;1.17;;
51238;SDS011;38154;47.548;18.828;2023-08-06T13:53:24;2.45;;;1.30;;
51238;SDS011;38154;47.548;18.828;2023-08-06T13:55:55;1.50;;;1.40;;
51238;SDS011;38154;47.548;18.828;2023-08-06T13:58:22;1.33;;;1.20;;
51238;SDS011;38154;47.548;18.828;2023-08-06T14:00:49;1.92;;;1.30;;
51238;SDS011;38154;47.548;18.828;2023-08-06T14:03:15;2.00;;;1.10;;
51238;SDS011;38154;47.548;18.828;2023-08-06T14:05:41;1.33;;;1.20;;
51238;SDS011;38154;47.548;18.828;2023-08-06T14:08:07;1.42;;;1.30;;
51238;SDS011;38154;47.548;18.828;2023-08-06T14:10:33;1.25;;;1.00;;
51238;SDS011;38154;47.548;18.828;2023-08-06T14:12:58;3.40;;;1.48;;
51238;SDS011;38154;47.548;18.828;2023-08-06T14:15:24;1.73;;;1.30;;
51238;SDS011;38154;47.548;18.828;2023-08-06T14:17:50;2.53;;;1.52;;
51238;SDS011;38154;47.548;18.828;2023-08-06T14:20:16;1.65;;;1.52;;
51238;SDS011;38154;47.548;18.828;2023-08-06T14:22:42;5.47;;;1.45;;
51238;SDS011;38154;47.548;18.828;2023-08-06T14:25:08;1.62;;;1.20;;
51238;SDS011;38154;47.548;18.828;2023-08-06T14:27:34;1.87;;;1.23;;
51238;SDS011;38154;47.548;18.828;2023-08-06T14:30:00;1.60;;;1.00;;
51238;SDS011;38154;47.548;18.828;2023-08-06T14:32:28;6.72;;;1.30;;
51238;SDS011;38154;47.548;18.828;2023-08-06T14:34:54;5.75;;;1.05;;
51238;SDS011;38154;47.548;18.828;2023-08-06T14:37:20;1.37;;;1.08;;
51238;SDS011;38154;47.548;18.828;2023-08-06T14:39:46;2.33;;;1.30;;
51238;SDS011;38154;47.548;18.828;2023-08-06T14:42:12;1.25;;;0.93;;
51238;SDS011;38154;47.548;18.828;2023-08-06T14:44:38;1.30;;;1.20;;
51238;SDS011;38154;47.548;18.828;2023-08-06T14:47:04;1.33;;;1.10;;
51238;SDS011;38154;47.548;18.828;2023-08-06T14:49:29;0.83;;;0.83;;
51238;SDS011;38154;47.548;18.828;2023-08-06T14:51:55;1.15;;;1.00;;
51238;SDS011;38154;47.548;18.828;2023-08-06T14:54:24;0.70;;;0.70;;
51238;SDS011;38154;47.548;18.828;2023-08-06T14:56:50;1.12;;;1.02;;
51238;SDS011;38154;47.548;18.828;2023-08-06T14:59:16;1.10;;;1.00;;